Time;durP1;ratioP1;P1;durP2;ratioP2;P2;SDS_P1;SDS_P2;PMS_P1;PMS_P2;Temp;Humidity;BMP_temperature;BMP_pressure;BME280_temperature;BME280_humidity;BME280_pressure;Samples;Min_cycle;Max_cycle;Signal;HPM_P1;HPM_P2
2023/03/31 00:01:43;;;;;;;;;;;10.40;99.90;;;;;;5115707;28;19981;-79
2023/03/31 00:04:11;;;;;;;;;;;;;;;;;;5114867;28;19923;-79
2023/03/31 00:06:37;;;;;;;;;;;;;;;;;;5115312;28;19916;-78
2023/03/31 00:09:04;;;;;;;;;;;10.30;99.90;;;;;;5115547;28;19927;-79
2023/03/31 00:11:30;;;;;;;;;;;10.40;99.90;;;;;;5115133;28;19916;-79
2023/03/31 00:13:55;;;;;;;;;;;10.30;99.90;;;;;;5115395;28;19923;-78
2023/03/31 00:16:21;;;;;;;;;;;10.40;99.90;;;;;;5132937;27;20289;-79
2023/03/31 00:18:49;;;;;;;;;;;;;;;;;;5115307;28;20367;-79
2023/03/31 00:21:28;;;;;;;;;;;10.30;99.90;;;;;;5115065;28;19923;-79
2023/03/31 00:23:55;;;;;;;;;;;10.40;99.90;;;;;;5115438;28;19926;-79
2023/03/31 00:26:21;;;;;;;;;;;10.30;99.90;;;;;;5115724;28;19919;-78
2023/03/31 00:28:48;;;;;;;;;;;10.50;99.90;;;;;;5152718;27;19926;-79
2023/03/31 00:31:14;;;;;;;;;;;10.40;99.90;;;;;;5117581;27;19925;-74
2023/03/31 00:33:40;;;;;;;;;;;;;;;;;;5118295;27;19915;-73
2023/03/31 00:36:06;;;;;;;;;;;10.20;99.90;;;;;;5101284;27;19976;-73
2023/03/31 00:38:32;;;;;;;;;;;10.30;99.90;;;;;;5118355;27;19915;-74
2023/03/31 00:40:58;;;;;;;;;;;10.50;99.90;;;;;;5100075;27;19915;-73
2023/03/31 00:43:24;;;;;;;;;;;;;;;;;;5118545;27;20363;-73
2023/03/31 00:45:50;;;;;;;;;;;;;;;;;;5118223;27;19962;-73
2023/03/31 00:48:16;;;;;;;;;;;;;;;;;;5118248;27;19919;-73
2023/03/31 00:50:47;;;;;;;;;;;10.30;99.90;;;;;;5117796;27;19915;-74
2023/03/31 00:53:14;;;;;;;;;;;;;;;;;;5117701;27;20405;-73
2023/03/31 00:55:40;;;;;;;;;;;;;;;;;;5117696;27;19916;-74
2023/03/31 00:58:06;;;;;;;;;;;;;;;;;;5118066;27;20015;-73
2023/03/31 01:00:31;;;;;;;;;;;;;;;;;;5116511;28;20235;-74
2023/03/31 01:02:58;;;;;;;;;;;;;;;;;;5118059;27;19915;-73
2023/03/31 01:05:23;;;;;;;;;;;;;;;;;;5100952;27;20208;-73
2023/03/31 01:07:49;;;;;;;;;;;;;;;;;;5118080;27;20018;-74
2023/03/31 01:10:15;;;;;;;;;;;;;;;;;;5117116;27;20367;-73
2023/03/31 01:12:41;;;;;;;;;;;;;;;;;;5117376;27;20235;-72
2023/03/31 01:15:07;;;;;;;;;;;;;;;;;;5117363;27;20053;-72
2023/03/31 01:17:34;;;;;;;;;;;;;;;;;;5100699;27;19919;-72
2023/03/31 01:20:12;;;;;;;;;;;9.90;99.90;;;;;;5151377;27;19920;-73
2023/03/31 01:22:38;;;;;;;;;;;;;;;;;;5100329;27;19919;-73
2023/03/31 01:25:13;;;;;;;;;;;9.90;99.90;;;;;;5116995;27;19968;-72
2023/03/31 01:27:49;;;;;;;;;;;9.70;99.90;;;;;;5099949;27;20279;-73
2023/03/31 01:30:15;;;;;;;;;;;;;;;;;;5134136;27;19919;-72
2023/03/31 01:32:41;;;;;;;;;;;;;;;;;;5117231;27;19922;-72
2023/03/31 01:35:07;;;;;;;;;;;;;;;;;;5116884;27;19922;-72
2023/03/31 01:37:33;;;;;;;;;;;;;;;;;;5100325;27;19915;-72
2023/03/31 01:39:59;;;;;;;;;;;;;;;;;;5117271;27;20059;-77
2023/03/31 01:42:33;;;;;;;;;;;9.90;99.90;;;;;;5117223;27;20363;-78
2023/03/31 01:44:59;;;;;;;;;;;;;;;;;;5100148;27;19926;-78
2023/03/31 01:47:25;;;;;;;;;;;;;;;;;;5117010;27;19915;-79
2023/03/31 01:49:51;;;;;;;;;;;;;;;;;;5116871;27;19981;-78
2023/03/31 01:52:17;;;;;;;;;;;;;;;;;;5117603;27;19915;-79
2023/03/31 01:54:43;;;;;;;;;;;;;;;;;;5117112;27;19915;-78
2023/03/31 01:57:09;;;;;;;;;;;;;;;;;;5117232;27;19915;-79
2023/03/31 01:59:35;;;;;;;;;;;;;;;;;;5151153;27;20287;-78
2023/03/31 02:02:01;;;;;;;;;;;;;;;;;;5116666;27;19923;-78
2023/03/31 02:04:37;;;;;;;;;;;9.60;99.90;;;;;;5116768;27;20327;-78
2023/03/31 02:07:04;;;;;;;;;;;9.60;99.90;;;;;;5116605;27;19915;-78
2023/03/31 02:09:34;;;;;;;;;;;9.80;99.90;;;;;;5133950;27;19938;-78
2023/03/31 02:12:00;;;;;;;;;;;;;;;;;;5151056;27;19959;-78
2023/03/31 02:14:25;;;;;;;;;;;;;;;;;;5116514;27;20409;-78
2023/03/31 02:16:51;;;;;;;;;;;;;;;;;;5099538;28;19915;-78
2023/03/31 02:19:18;;;;;;;;;;;;;;;;;;5134084;27;19945;-78
2023/03/31 02:21:44;;;;;;;;;;;;;;;;;;5128960;27;20533;-78
2023/03/31 02:24:11;;;;;;;;;;;9.70;99.90;;;;;;5116293;28;20117;-78
2023/03/31 02:26:40;;;;;;;;;;;9.80;99.90;;;;;;5099477;28;19934;-78
2023/03/31 02:29:05;;;;;;;;;;;9.90;99.90;;;;;;5116500;28;19919;-78
2023/03/31 02:31:47;;;;;;;;;;;10.10;99.90;;;;;;5116376;27;19926;-78
2023/03/31 02:34:13;;;;;;;;;;;;;;;;;;5116770;27;20286;-78
2023/03/31 02:36:39;;;;;;;;;;;;;;;;;;5116417;28;19922;-78
2023/03/31 02:39:06;;;;;;;;;;;9.90;99.90;;;;;;5116254;28;20001;-78
2023/03/31 02:41:32;;;;;;;;;;;;;;;;;;5116264;28;20341;-78
2023/03/31 02:43:58;;;;;;;;;;;;;;;;;;5116045;27;20010;-77
2023/03/31 02:46:24;;;;;;;;;;;;;;;;;;5099262;28;20294;-77
2023/03/31 02:48:50;;;;;;;;;;;;;;;;;;5116235;28;19919;-77
2023/03/31 02:51:16;;;;;;;;;;;;;;;;;;5116369;28;19916;-78
2023/03/31 02:53:42;;;;;;;;;;;;;;;;;;5116301;28;19959;-78
2023/03/31 02:56:08;;;;;;;;;;;;;;;;;;5116432;27;19923;-78
2023/03/31 02:58:34;;;;;;;;;;;;;;;;;;5115983;28;19915;-77
2023/03/31 03:01:00;;;;;;;;;;;;;;;;;;5116166;28;19916;-78
2023/03/31 03:03:26;;;;;;;;;;;;;;;;;;5115803;28;19967;-79
2023/03/31 03:05:53;;;;;;;;;;;;;;;;;;5116217;27;19926;-79
2023/03/31 03:08:20;;;;;;;;;;;;;;;;;;5098824;28;19968;-77
2023/03/31 03:10:45;;;;;;;;;;;;;;;;;;5116271;27;19915;-78
2023/03/31 03:13:11;;;;;;;;;;;;;;;;;;5115802;28;20308;-78
2023/03/31 03:15:37;;;;;;;;;;;;;;;;;;5099037;28;20318;-78
2023/03/31 03:18:03;;;;;;;;;;;;;;;;;;5115841;28;19922;-78
2023/03/31 03:20:29;;;;;;;;;;;;;;;;;;5116071;28;19958;-78
2023/03/31 03:22:55;;;;;;;;;;;;;;;;;;5115397;28;20434;-78
2023/03/31 03:25:23;;;;;;;;;;;;;;;;;;5118739;27;19915;-78
2023/03/31 03:27:48;;;;;;;;;;;9.80;99.90;;;;;;5154008;27;19919;-78
2023/03/31 03:30:14;;;;;;;;;;;9.80;99.90;;;;;;5119512;27;20279;-78
2023/03/31 03:32:40;;;;;;;;;;;;;;;;;;5119500;27;19954;-78
2023/03/31 03:35:06;;;;;;;;;;;9.80;99.90;;;;;;5154220;27;20371;-78
2023/03/31 03:37:32;;;;;;;;;;;;;;;;;;5119831;27;20624;-78
2023/03/31 03:39:58;;;;;;;;;;;9.80;99.90;;;;;;5119621;27;19923;-78
2023/03/31 03:42:24;;;;;;;;;;;;;;;;;;5123807;27;19919;-78
2023/03/31 03:44:49;;;;;;;;;;;9.90;99.90;;;;;;5120935;27;19922;-77
2023/03/31 03:47:15;;;;;;;;;;;;;;;;;;5144679;27;19915;-77
2023/03/31 03:49:41;;;;;;;;;;;;;;;;;;5131236;27;19919;-77
2023/03/31 03:52:07;;;;;;;;;;;;;;;;;;5130037;27;19915;-77
2023/03/31 03:54:33;;;;;;;;;;;;;;;;;;5119520;27;19915;-77
2023/03/31 03:56:59;;;;;;;;;;;;;;;;;;5119354;27;19919;-77
2023/03/31 03:59:25;;;;;;;;;;;;;;;;;;5119203;27;19974;-78
2023/03/31 04:01:51;;;;;;;;;;;9.80;99.90;;;;;;5102050;27;19915;-77
2023/03/31 04:04:17;;;;;;;;;;;9.90;99.90;;;;;;5119102;27;19922;-78
2023/03/31 04:06:43;;;;;;;;;;;;;;;;;;5119011;27;19915;-77
2023/03/31 04:09:09;;;;;;;;;;;;;;;;;;5118429;27;19926;-78
2023/03/31 04:11:35;;;;;;;;;;;9.70;99.90;;;;;;5153409;27;20002;-78
2023/03/31 04:14:01;;;;;;;;;;;;;;;;;;5145966;27;19993;-78
2023/03/31 04:16:27;;;;;;;;;;;;;;;;;;5099979;27;19915;-78
2023/03/31 04:18:55;;;;;;;;;;;;;;;;;;5101507;27;19915;-78
2023/03/31 04:21:21;;;;;;;;;;;;;;;;;;5152957;27;19922;-77
2023/03/31 04:23:48;;;;;;;;;;;9.80;99.90;;;;;;5118583;27;19968;-78
2023/03/31 04:26:14;;;;;;;;;;;;;;;;;;5118909;27;20308;-78
2023/03/31 04:28:41;;;;;;;;;;;;;;;;;;5117938;27;19927;-79
2023/03/31 04:31:08;;;;;;;;;;;;;;;;;;5153005;27;19915;-78
2023/03/31 04:33:37;;;;;;;;;;;;;;;;;;5152555;27;19915;-78
2023/03/31 04:36:05;;;;;;;;;;;;;;;;;;5140313;27;20327;-79
2023/03/31 04:38:32;;;;;;;;;;;10.00;99.90;;;;;;5133719;27;20285;-78
2023/03/31 04:40:58;;;;;;;;;;;9.90;99.90;;;;;;5135887;27;19919;-79
2023/03/31 04:43:24;;;;;;;;;;;;;;;;;;5118233;27;20394;-79
2023/03/31 04:45:50;;;;;;;;;;;9.90;99.90;;;;;;5118135;27;19923;-78
2023/03/31 04:48:15;;;;;;;;;;;9.90;99.90;;;;;;5118370;27;19922;-78
2023/03/31 04:50:41;;;;;;;;;;;9.80;99.90;;;;;;5118023;27;19917;-72
2023/03/31 04:53:07;;;;;;;;;;;;;;;;;;5118337;27;20009;-78
2023/03/31 04:55:33;;;;;;;;;;;;;;;;;;5118305;27;19922;-78
2023/03/31 04:57:59;;;;;;;;;;;;;;;;;;5118085;27;20323;-79
2023/03/31 05:00:25;;;;;;;;;;;9.90;99.90;;;;;;5101059;27;19921;-78
2023/03/31 05:02:51;;;;;;;;;;;9.80;99.90;;;;;;5101475;27;20359;-78
2023/03/31 05:05:17;;;;;;;;;;;10.00;99.90;;;;;;5117543;27;20420;-78
2023/03/31 05:07:43;;;;;;;;;;;;;;;;;;5117970;27;19919;-71
2023/03/31 05:10:09;;;;;;;;;;;;;;;;;;5117281;27;20367;-70
2023/03/31 05:12:35;;;;;;;;;;;;;;;;;;5117551;27;19915;-73
2023/03/31 05:15:01;;;;;;;;;;;;;;;;;;5120055;27;19923;-69
2023/03/31 05:17:26;;;;;;;;;;;;;;;;;;5117225;27;20013;-75
2023/03/31 05:19:52;;;;;;;;;;;;;;;;;;5117076;27;20367;-76
2023/03/31 05:22:22;;;;;;;;;;;9.90;99.90;;;;;;5117674;27;19938;-84
2023/03/31 05:24:48;;;;;;;;;;;9.90;99.90;;;;;;5100795;27;19977;-77
2023/03/31 05:27:14;;;;;;;;;;;;;;;;;;5134576;27;20385;-83
2023/03/31 05:29:50;;;;;;;;;;;9.80;99.90;;;;;;5153542;27;20291;-77
2023/03/31 05:32:15;;;;;;;;;;;9.80;99.90;;;;;;5136003;27;20370;-71
2023/03/31 05:34:42;;;;;;;;;;;9.80;99.90;;;;;;5135598;27;19916;-75
2023/03/31 05:37:07;;;;;;;;;;;10.10;99.90;;;;;;5135952;27;19922;-73
2023/03/31 05:39:33;;;;;;;;;;;10.00;99.90;;;;;;5135632;27;20006;-75
2023/03/31 05:41:59;;;;;;;;;;;10.20;99.90;;;;;;5133265;27;20268;-76
2023/03/31 05:44:26;;;;;;;;;;;9.80;99.90;;;;;;5117115;27;20362;-69
2023/03/31 05:46:52;;;;;;;;;;;10.10;99.90;;;;;;5083283;27;20256;-69
2023/03/31 05:49:18;;;;;;;;;;;;;;;;;;5117007;27;19923;-74
2023/03/31 05:51:44;;;;;;;;;;;;;;;;;;5117086;27;20411;-69
2023/03/31 05:54:10;;;;;;;;;;;;;;;;;;5116579;27;19958;-69
2023/03/31 05:56:36;;;;;;;;;;;9.80;99.90;;;;;;5099365;27;19970;-72
2023/03/31 05:59:02;;;;;;;;;;;;;;;;;;5116711;27;19915;-71
2023/03/31 06:01:28;;;;;;;;;;;;;;;;;;5116286;27;19915;-69
2023/03/31 06:03:54;;;;;;;;;;;10.10;99.90;;;;;;5116634;27;19919;-69
2023/03/31 06:06:21;;;;;;;;;;;10.00;99.90;;;;;;5116541;27;19967;-69
2023/03/31 06:08:47;;;;;;;;;;;10.10;99.90;;;;;;5134708;27;19934;-74
2023/03/31 06:11:13;;;;;;;;;;;;;;;;;;5115976;27;20015;-69
2023/03/31 06:13:38;;;;;;;;;;;10.00;99.90;;;;;;5114805;27;20545;-69
2023/03/31 06:16:04;;;;;;;;;;;;;;;;;;5115089;27;19919;-68
2023/03/31 06:18:30;;;;;;;;;;;;;;;;;;5116323;27;19916;-69
2023/03/31 06:20:56;;;;;;;;;;;10.00;99.90;;;;;;5115551;27;19921;-71
2023/03/31 06:23:22;;;;;;;;;;;10.00;99.90;;;;;;5135116;27;19915;-71
2023/03/31 06:25:48;;;;;;;;;;;10.00;99.90;;;;;;5116623;27;20359;-76
2023/03/31 06:28:14;;;;;;;;;;;;;;;;;;5115884;27;19972;-76
2023/03/31 06:30:40;;;;;;;;;;;;;;;;;;5099052;27;19919;-69
2023/03/31 06:33:05;;;;;;;;;;;10.10;99.90;;;;;;5115487;27;19998;-67
2023/03/31 06:35:31;;;;;;;;;;;;;;;;;;5110526;27;20042;-68
2023/03/31 06:37:57;;;;;;;;;;;;;;;;;;5113930;28;20434;-68
2023/03/31 06:40:23;;;;;;;;;;;;;;;;;;5113165;28;20283;-68
2023/03/31 06:42:49;;;;;;;;;;;;;;;;;;5114880;28;19915;-68
2023/03/31 06:45:15;;;;;;;;;;;;;;;;;;5114207;28;20431;-68
2023/03/31 06:47:41;;;;;;;;;;;;;;;;;;5114054;27;19919;-68
2023/03/31 06:50:07;;;;;;;;;;;;;;;;;;5114334;28;20374;-69
2023/03/31 06:52:33;;;;;;;;;;;;;;;;;;5114787;28;19920;-68
2023/03/31 06:54:59;;;;;;;;;;;;;;;;;;5114723;28;21571;-68
2023/03/31 06:57:25;;;;;;;;;;;;;;;;;;5114431;28;20340;-68
2023/03/31 06:59:51;;;;;;;;;;;;;;;;;;5116383;27;19938;-68
2023/03/31 07:02:17;;;;;;;;;;;;;;;;;;5102603;27;19923;-69
2023/03/31 07:04:43;;;;;;;;;;;;;;;;;;5117230;27;19915;-69
2023/03/31 07:07:09;;;;;;;;;;;9.90;99.90;;;;;;5118197;27;19926;-68
2023/03/31 07:09:35;;;;;;;;;;;;;;;;;;5119490;27;19915;-69
2023/03/31 07:12:04;;;;;;;;;;;;;;;;;;5119754;27;19919;-68
2023/03/31 07:14:29;;;;;;;;;;;;;;;;;;5118963;27;19915;-69
2023/03/31 07:16:55;;;;;;;;;;;10.20;99.90;;;;;;5119247;27;20026;-69
2023/03/31 07:19:21;;;;;;;;;;;10.20;99.90;;;;;;5119275;27;19915;-69
2023/03/31 07:21:47;;;;;;;;;;;10.10;99.90;;;;;;5119953;27;19915;-69
2023/03/31 07:24:13;;;;;;;;;;;;;;;;;;5119670;27;20448;-69
2023/03/31 07:26:39;;;;;;;;;;;10.20;99.90;;;;;;5119888;27;19922;-69
2023/03/31 07:29:05;;;;;;;;;;;10.10;99.90;;;;;;5102477;27;20302;-69
2023/03/31 07:31:30;;;;;;;;;;;10.00;99.90;;;;;;5119690;27;20003;-69
2023/03/31 07:33:56;;;;;;;;;;;10.20;99.90;;;;;;5119603;27;19922;-68
2023/03/31 07:36:21;;;;;;;;;;;10.00;99.90;;;;;;5119972;27;19915;-68
2023/03/31 07:38:48;;;;;;;;;;;10.20;99.90;;;;;;5119492;27;19916;-68
2023/03/31 07:41:14;;;;;;;;;;;;;;;;;;5102733;27;19919;-68
2023/03/31 07:43:40;;;;;;;;;;;;;;;;;;5120444;27;20002;-68
2023/03/31 07:46:07;;;;;;;;;;;;;;;;;;5102674;27;20339;-68
2023/03/31 07:48:32;;;;;;;;;;;10.00;99.90;;;;;;5119527;27;19919;-68
2023/03/31 07:50:58;;;;;;;;;;;10.20;99.90;;;;;;5119854;27;19922;-68
2023/03/31 07:53:24;;;;;;;;;;;;;;;;;;5119270;27;19923;-68
2023/03/31 07:55:50;;;;;;;;;;;10.10;99.90;;;;;;5119074;27;19915;-68
2023/03/31 07:58:16;;;;;;;;;;;;;;;;;;5119291;27;19998;-68
2023/03/31 08:00:42;;;;;;;;;;;;;;;;;;5119118;27;19983;-68
2023/03/31 08:03:08;;;;;;;;;;;;;;;;;;5118938;27;19924;-68
2023/03/31 08:05:34;;;;;;;;;;;;;;;;;;5101911;27;19971;-68
2023/03/31 08:08:00;;;;;;;;;;;10.00;99.90;;;;;;5119242;27;19963;-68
2023/03/31 08:10:26;;;;;;;;;;;;;;;;;;5118440;27;19997;-68
2023/03/31 08:12:52;;;;;;;;;;;;;;;;;;5118822;27;20321;-68
2023/03/31 08:15:18;;;;;;;;;;;;;;;;;;5101704;27;20003;-68
2023/03/31 08:17:44;;;;;;;;;;;;;;;;;;5119058;27;19922;-68
2023/03/31 08:20:10;;;;;;;;;;;;;;;;;;5118603;27;20345;-69
2023/03/31 08:22:36;;;;;;;;;;;10.20;99.90;;;;;;5118782;27;19921;-69
2023/03/31 08:25:02;;;;;;;;;;;10.20;99.90;;;;;;5153719;27;19915;-69
2023/03/31 08:27:28;;;;;;;;;;;10.30;99.90;;;;;;5152871;27;19920;-68
2023/03/31 08:29:53;;;;;;;;;;;10.30;99.90;;;;;;5118390;27;19942;-69
2023/03/31 08:32:19;;;;;;;;;;;;;;;;;;5118703;27;20009;-68
2023/03/31 08:34:46;;;;;;;;;;;;;;;;;;5118766;27;19916;-68
2023/03/31 08:37:11;;;;;;;;;;;10.40;99.90;;;;;;5101522;27;19915;-67
2023/03/31 08:39:37;;;;;;;;;;;;;;;;;;5101537;27;19923;-67
2023/03/31 08:42:12;;;;;;;;;;;10.40;99.90;;;;;;5118264;27;20282;-68
2023/03/31 08:44:37;;;;;;;;;;;;;;;;;;5118184;27;19922;-68
2023/03/31 08:47:03;;;;;;;;;;;;;;;;;;5118114;27;19915;-68
2023/03/31 08:49:38;;;;;;;;;;;10.50;99.90;;;;;;5118131;27;19925;-68
2023/03/31 08:52:06;;;;;;;;;;;10.40;99.90;;;;;;5118687;27;19915;-76
2023/03/31 08:54:32;;;;;;;;;;;;;;;;;;5118740;27;19915;-76
2023/03/31 08:56:58;;;;;;;;;;;;;;;;;;5118231;27;19922;-76
2023/03/31 08:59:24;;;;;;;;;;;;;;;;;;5101289;27;19919;-76
2023/03/31 09:02:00;;;;;;;;;;;10.70;99.90;;;;;;5118073;27;19919;-76
2023/03/31 09:04:26;;;;;;;;;;;;;;;;;;5118240;27;20006;-76
2023/03/31 09:07:06;;;;;;;;;;;10.70;99.90;;;;;;5100847;27;19955;-76
2023/03/31 09:09:38;;;;;;;;;;;10.60;99.90;;;;;;5118186;27;19924;-76
2023/03/31 09:12:11;;;;;;;;;;;10.80;99.90;;;;;;5118004;27;19969;-76
2023/03/31 09:14:37;;;;;;;;;;;;;;;;;;5118060;27;19916;-76
2023/03/31 09:17:03;;;;;;;;;;;;;;;;;;5117837;27;19915;-77
2023/03/31 09:19:37;;;;;;;;;;;10.90;99.90;;;;;;5117801;27;19915;-76
2023/03/31 09:22:03;;;;;;;;;;;;;;;;;;5116840;27;19922;-76
2023/03/31 09:24:29;;;;;;;;;;;;;;;;;;5117624;27;19915;-75
2023/03/31 09:26:57;;;;;;;;;;;11.10;99.90;;;;;;5117656;27;19938;-75
2023/03/31 09:29:28;;;;;;;;;;;11.00;99.90;;;;;;5134717;27;19971;-76
2023/03/31 09:31:54;;;;;;;;;;;;;;;;;;5117475;27;19915;-76
2023/03/31 09:34:25;;;;;;;;;;;11.10;99.90;;;;;;5117378;27;19915;-68
2023/03/31 09:36:51;;;;;;;;;;;;;;;;;;5117241;27;20403;-68
2023/03/31 09:39:17;;;;;;;;;;;;;;;;;;5117252;27;19915;-68
2023/03/31 09:41:43;;;;;;;;;;;;;;;;;;5100465;27;20010;-68
2023/03/31 09:44:09;;;;;;;;;;;;;;;;;;5116924;27;19966;-68
2023/03/31 09:46:35;;;;;;;;;;;;;;;;;;5116916;27;20371;-68
2023/03/31 09:49:13;;;;;;;;;;;11.20;99.90;;;;;;5117184;27;19919;-68
2023/03/31 09:51:39;;;;;;;;;;;;;;;;;;5117344;27;19938;-68
2023/03/31 09:54:05;;;;;;;;;;;;;;;;;;5099944;27;20287;-68
2023/03/31 09:56:32;;;;;;;;;;;11.30;99.90;;;;;;5116872;27;19916;-69
2023/03/31 09:58:58;;;;;;;;;;;;;;;;;;5151444;27;20340;-68
2023/03/31 10:01:24;;;;;;;;;;;;;;;;;;5100089;27;19915;-68
2023/03/31 10:03:50;;;;;;;;;;;11.40;99.90;;;;;;5117321;27;20275;-75
2023/03/31 10:06:16;;;;;;;;;;;;;;;;;;5117221;27;19922;-76
2023/03/31 10:08:42;;;;;;;;;;;;;;;;;;5121104;27;19919;-68
2023/03/31 10:11:08;;;;;;;;;;;;;;;;;;5116758;28;19923;-68
2023/03/31 10:13:34;;;;;;;;;;;;;;;;;;5116857;27;19954;-68
2023/03/31 10:16:01;;;;;;;;;;;;;;;;;;5099929;27;20019;-68
2023/03/31 10:18:27;;;;;;;;;;;;;;;;;;5099900;27;19923;-68
2023/03/31 10:20:57;;;;;;;;;;;11.30;99.90;;;;;;5116605;27;20274;-68
2023/03/31 10:23:31;;;;;;;;;;;11.00;99.90;;;;;;5116544;27;19964;-68
2023/03/31 10:25:57;;;;;;;;;;;;;;;;;;5116416;27;19915;-69
2023/03/31 10:28:23;;;;;;;;;;;;;;;;;;5116292;28;19968;-69
2023/03/31 10:30:49;;;;;;;;;;;;;;;;;;5116380;28;19974;-69
2023/03/31 10:33:14;;;;;;;;;;;;;;;;;;5116150;27;19919;-69
2023/03/31 10:35:40;;;;;;;;;;;;;;;;;;5099614;27;19915;-69
2023/03/31 10:38:06;;;;;;;;;;;;;;;;;;5116192;28;20282;-69
2023/03/31 10:40:32;;;;;;;;;;;;;;;;;;5099289;28;20260;-69
2023/03/31 10:43:24;;;;;;;;;;;11.80;99.90;;;;;;5116108;28;19915;-69
2023/03/31 10:45:51;;;;;;;;;;;11.70;99.90;;;;;;5095412;28;20278;-69
2023/03/31 10:48:17;;;;;;;;;;;;;;;;;;5116522;28;20055;-69
2023/03/31 10:50:43;;;;;;;;;;;;;;;;;;5117004;28;19927;-77
2023/03/31 10:53:09;;;;;;;;;;;;;;;;;;5101000;28;20268;-76
2023/03/31 10:55:35;;;;;;;;;;;;;;;;;;5119943;28;19915;-77
2023/03/31 10:58:07;;;;;;;;;;;12.00;99.90;;;;;;5120804;28;19923;-76
2023/03/31 11:00:33;;;;;;;;;;;12.00;99.90;;;;;;5117271;28;19915;-77
2023/03/31 11:03:37;;;;;;;;;;;11.90;99.90;;;;;;5137392;27;19979;-76
2023/03/31 11:06:03;;;;;;;;;;;;;;;;;;5072625;28;20401;-77
2023/03/31 11:08:29;;;;;;;;;;;;;;;;;;5072535;28;20020;-77
2023/03/31 11:10:56;;;;;;;;;;;;;;;;;;5074389;28;20386;-77
2023/03/31 11:13:24;;;;;;;;;;;12.50;99.90;;;;;;5116569;28;19919;-77
2023/03/31 11:15:50;;;;;;;;;;;;;;;;;;5116453;28;20320;-77
2023/03/31 11:18:16;;;;;;;;;;;12.50;99.90;;;;;;5116908;27;19998;-77
2023/03/31 11:21:04;;;;;;;;;;;12.50;99.90;;;;;;5116338;28;20351;-70
2023/03/31 11:23:30;;;;;;;;;;;;;;;;;;5116136;28;19915;-70
2023/03/31 11:25:56;;;;;;;;;;;;;;;;;;5116206;28;19922;-70
2023/03/31 11:28:22;;;;;;;;;;;;;;;;;;5082260;28;20248;-70
2023/03/31 11:30:48;;;;;;;;;;;;;;;;;;5092148;28;19916;-70
2023/03/31 11:33:14;;;;;;;;;;;;;;;;;;5092157;28;19927;-71
2023/03/31 11:35:42;;;;;;;;;;;;;;;;;;5092094;28;19916;-71
2023/03/31 11:38:11;;;;;;;;;;;12.50;99.90;;;;;;5092072;28;19959;-70
2023/03/31 11:40:56;;;;;;;;;;;12.70;99.90;;;;;;5092267;28;20287;-69
2023/03/31 11:43:22;;;;;;;;;;;;;;;;;;5092083;28;20390;-70
2023/03/31 11:45:49;;;;;;;;;;;;;;;;;;5094037;28;19916;-70
2023/03/31 11:48:17;;;;;;;;;;;12.30;99.90;;;;;;5095643;28;19920;-69
2023/03/31 11:50:44;;;;;;;;;;;12.30;99.90;;;;;;5095611;28;19927;-70
2023/03/31 11:53:23;;;;;;;;;;;12.40;99.90;;;;;;5095396;28;19916;-70
2023/03/31 11:55:51;;;;;;;;;;;12.30;99.90;;;;;;5129886;27;19969;-70
2023/03/31 11:58:23;;;;;;;;;;;12.50;99.90;;;;;;5078664;28;19915;-70
2023/03/31 12:01:03;;;;;;;;;;;12.30;99.90;;;;;;5095338;28;20367;-70
2023/03/31 12:03:29;;;;;;;;;;;;;;;;;;5095364;28;19961;-69
2023/03/31 12:05:55;;;;;;;;;;;;;;;;;;5095402;28;19923;-69
2023/03/31 12:08:21;;;;;;;;;;;;;;;;;;5095587;28;19928;-70
2023/03/31 12:10:48;;;;;;;;;;;;;;;;;;5078203;28;20367;-70
2023/03/31 12:13:14;;;;;;;;;;;;;;;;;;5095010;28;19916;-69
2023/03/31 12:15:41;;;;;;;;;;;12.40;99.90;;;;;;5095066;28;19923;-69
2023/03/31 12:18:07;;;;;;;;;;;;;;;;;;5095221;28;19916;-69
2023/03/31 12:20:33;;;;;;;;;;;;;;;;;;5094851;28;19923;-69
2023/03/31 12:22:59;;;;;;;;;;;;;;;;;;5094976;28;19916;-69
2023/03/31 12:25:27;;;;;;;;;;;12.30;99.90;;;;;;5095429;28;20275;-76
2023/03/31 12:27:53;;;;;;;;;;;12.30;99.90;;;;;;5095039;28;20364;-76
2023/03/31 12:30:26;;;;;;;;;;;12.20;99.90;;;;;;5095118;28;19920;-76
2023/03/31 12:32:54;;;;;;;;;;;12.30;99.90;;;;;;5095255;28;19916;-76
2023/03/31 12:35:22;;;;;;;;;;;12.30;99.90;;;;;;5095059;28;20352;-75
2023/03/31 12:37:48;;;;;;;;;;;;;;;;;;5094961;28;20403;-75
2023/03/31 12:40:14;;;;;;;;;;;;;;;;;;5095322;28;19919;-76
2023/03/31 12:42:40;;;;;;;;;;;;;;;;;;5095058;28;20003;-76
2023/03/31 12:45:16;;;;;;;;;;;12.30;99.90;;;;;;5094894;28;20370;-76
2023/03/31 12:47:42;;;;;;;;;;;;;;;;;;5094828;28;19927;-76
2023/03/31 12:50:08;;;;;;;;;;;12.60;99.90;;;;;;5094472;28;19924;-75
2023/03/31 12:52:37;;;;;;;;;;;12.30;99.90;;;;;;5094956;28;19973;-76
2023/03/31 12:55:17;;;;;;;;;;;12.30;99.90;;;;;;5094692;28;19916;-76
2023/03/31 12:57:43;;;;;;;;;;;12.30;99.90;;;;;;5093149;28;19959;-76
2023/03/31 13:00:12;;;;;;;;;;;;;;;;;;5094622;28;19970;-75
2023/03/31 13:02:38;;;;;;;;;;;12.30;99.90;;;;;;5094462;28;19920;-76
2023/03/31 13:05:04;;;;;;;;;;;;;;;;;;5077360;28;19922;-69
2023/03/31 13:07:31;;;;;;;;;;;12.40;99.90;;;;;;5094136;28;19962;-69
2023/03/31 13:09:57;;;;;;;;;;;12.30;99.90;;;;;;5093933;28;19974;-69
2023/03/31 13:12:26;;;;;;;;;;;12.30;99.90;;;;;;5094076;28;19916;-70
2023/03/31 13:14:53;;;;;;;;;;;;;;;;;;5094288;28;20352;-69
2023/03/31 13:17:23;;;;;;;;;;;12.60;99.90;;;;;;5077065;28;20049;-70
2023/03/31 13:19:50;;;;;;;;;;;;;;;;;;5093921;28;19916;-69
2023/03/31 13:22:15;;;;;;;;;;;;;;;;;;5093794;28;19916;-70
2023/03/31 13:24:41;;;;;;;;;;;;;;;;;;5093793;28;19916;-70
2023/03/31 13:27:28;;;;;;;;;;;12.90;99.90;;;;;;5098869;27;19915;-70
2023/03/31 13:29:53;;;;;;;;;;;12.60;99.90;;;;;;5100419;27;19919;-70
2023/03/31 13:32:21;;;;;;;;;;;13.00;99.90;;;;;;5117216;27;19915;-70
2023/03/31 13:34:46;;;;;;;;;;;;;;;;;;5117332;27;19915;-70
2023/03/31 13:37:12;;;;;;;;;;;;;;;;;;5117407;27;19921;-70
2023/03/31 13:39:38;;;;;;;;;;;;;;;;;;5100355;27;19915;-70
2023/03/31 13:42:04;;;;;;;;;;;;;;;;;;5117151;27;19923;-70
2023/03/31 13:44:42;;;;;;;;;;;13.20;99.90;;;;;;5117148;27;20359;-70
2023/03/31 13:47:26;;;;;;;;;;;13.30;99.90;;;;;;5151468;27;19994;-70
2023/03/31 13:49:51;;;;;;;;;;;13.20;99.90;;;;;;5117051;27;20412;-70
2023/03/31 13:52:43;;;;;;;;;;;13.30;99.90;;;;;;5117344;27;19916;-70
2023/03/31 13:55:09;;;;;;;;;;;;;;;;;;5120130;27;19915;-71
2023/03/31 13:57:35;;;;;;;;;;;;;;;;;;5117236;27;20370;-70
2023/03/31 14:00:14;;;;;;;;;;;13.30;99.90;;;;;;5116929;27;20287;-71
2023/03/31 14:02:39;;;;;;;;;;;;;;;;;;5116848;27;19965;-71
2023/03/31 14:05:05;;;;;;;;;;;;;;;;;;5116889;27;19915;-71
2023/03/31 14:07:33;;;;;;;;;;;13.30;99.90;;;;;;5116492;27;19922;-70
2023/03/31 14:09:59;;;;;;;;;;;13.40;99.90;;;;;;5099607;27;20424;-71
2023/03/31 14:12:25;;;;;;;;;;;;;;;;;;5116934;27;19923;-71
2023/03/31 14:14:53;;;;;;;;;;;13.50;99.90;;;;;;5116953;27;20348;-71
2023/03/31 14:17:20;;;;;;;;;;;;;;;;;;5099927;27;19919;-71
2023/03/31 14:19:46;;;;;;;;;;;;;;;;;;5116623;27;19915;-71
2023/03/31 14:22:12;;;;;;;;;;;;;;;;;;5116404;27;19915;-71
2023/03/31 14:24:38;;;;;;;;;;;;;;;;;;5099460;27;19958;-71
2023/03/31 14:27:04;;;;;;;;;;;;;;;;;;5116396;27;19919;-71
2023/03/31 14:29:30;;;;;;;;;;;;;;;;;;5099533;27;19927;-71
2023/03/31 14:32:05;;;;;;;;;;;13.40;99.90;;;;;;5116674;27;19915;-71
2023/03/31 14:34:31;;;;;;;;;;;;;;;;;;5116396;27;19916;-71
2023/03/31 14:37:10;;;;;;;;;;;13.10;99.90;;;;;;5116577;27;19958;-71
2023/03/31 14:39:36;;;;;;;;;;;;;;;;;;5116330;28;19915;-71
2023/03/31 14:42:02;;;;;;;;;;;;;;;;;;5116424;28;19998;-71
2023/03/31 14:44:28;;;;;;;;;;;;;;;;;;5116380;27;19965;-71
2023/03/31 14:46:55;;;;;;;;;;;12.90;99.90;;;;;;5116428;28;19919;-71
2023/03/31 14:49:22;;;;;;;;;;;;;;;;;;5116174;28;20396;-71
2023/03/31 14:51:48;;;;;;;;;;;12.90;99.90;;;;;;5116208;28;20002;-71
2023/03/31 14:54:17;;;;;;;;;;;12.90;99.90;;;;;;5116341;28;19962;-71
2023/03/31 14:56:45;;;;;;;;;;;13.10;99.90;;;;;;5150547;27;19964;-71
2023/03/31 14:59:14;;;;;;;;;;;12.80;99.90;;;;;;5150405;27;19919;-71
2023/03/31 15:01:40;;;;;;;;;;;;;;;;;;5115942;28;19998;-71
2023/03/31 15:04:06;;;;;;;;;;;;;;;;;;5116131;28;19915;-71
2023/03/31 15:06:32;;;;;;;;;;;;;;;;;;5116178;28;19923;-71
2023/03/31 15:09:01;;;;;;;;;;;13.10;99.90;;;;;;5116339;28;20264;-77
2023/03/31 15:11:27;;;;;;;;;;;12.70;99.90;;;;;;5116304;28;20390;-77
2023/03/31 15:13:53;;;;;;;;;;;;;;;;;;5116099;27;19923;-78
2023/03/31 15:16:19;;;;;;;;;;;;;;;;;;5116129;28;19960;-78
2023/03/31 15:18:45;;;;;;;;;;;;;;;;;;5116383;28;19919;-77
2023/03/31 15:21:21;;;;;;;;;;;12.80;99.90;;;;;;5118495;27;20295;-78
2023/03/31 15:23:46;;;;;;;;;;;;;;;;;;5155347;27;19988;-78
2023/03/31 15:26:13;;;;;;;;;;;;;;;;;;5120233;27;20371;-78
2023/03/31 15:28:48;;;;;;;;;;;12.80;99.90;;;;;;5102851;27;19920;-77
2023/03/31 15:31:15;;;;;;;;;;;12.70;99.90;;;;;;5120090;27;19919;-78
2023/03/31 15:33:41;;;;;;;;;;;;;;;;;;5119689;27;19922;-77
2023/03/31 15:36:07;;;;;;;;;;;;;;;;;;5120033;27;19922;-77
2023/03/31 15:38:33;;;;;;;;;;;;;;;;;;5119865;27;19916;-78
2023/03/31 15:40:59;;;;;;;;;;;;;;;;;;5119964;27;20002;-78
2023/03/31 15:43:25;;;;;;;;;;;;;;;;;;5119860;27;19926;-77